sensor_id;sensor_type;location;lat;lon;timestamp;P1;durP1;ratioP1;P2;durP2;ratioP2
51981;SDS011;37998;53.416;6.730;2023-08-12T00:00:27;19.27;;;14.80;;
51981;SDS011;37998;53.416;6.730;2023-08-12T00:02:53;19.95;;;14.60;;
51981;SDS011;37998;53.416;6.730;2023-08-12T00:05:18;18.88;;;14.65;;
51981;SDS011;37998;53.416;6.730;2023-08-12T00:07:44;23.60;;;15.00;;
51981;SDS011;37998;53.416;6.730;2023-08-12T00:10:11;20.15;;;14.60;;
51981;SDS011;37998;53.416;6.730;2023-08-12T00:12:38;19.05;;;14.68;;
51981;SDS011;37998;53.416;6.730;2023-08-12T00:15:05;19.08;;;13.90;;
51981;SDS011;37998;53.416;6.730;2023-08-12T00:17:33;22.90;;;14.55;;
51981;SDS011;37998;53.416;6.730;2023-08-12T00:20:01;19.13;;;14.00;;
51981;SDS011;37998;53.416;6.730;2023-08-12T00:22:30;22.02;;;14.57;;
51981;SDS011;37998;53.416;6.730;2023-08-12T00:24:56;24.77;;;14.18;;
51981;SDS011;37998;53.416;6.730;2023-08-12T00:27:22;21.83;;;14.15;;
51981;SDS011;37998;53.416;6.730;2023-08-12T00:29:48;19.90;;;13.48;;
51981;SDS011;37998;53.416;6.730;2023-08-12T00:32:14;21.60;;;14.35;;
51981;SDS011;37998;53.416;6.730;2023-08-12T00:34:40;18.70;;;13.60;;
51981;SDS011;37998;53.416;6.730;2023-08-12T00:37:06;20.92;;;13.80;;
51981;SDS011;37998;53.416;6.730;2023-08-12T00:39:32;21.63;;;13.25;;
51981;SDS011;37998;53.416;6.730;2023-08-12T00:41:58;24.00;;;13.82;;
51981;SDS011;37998;53.416;6.730;2023-08-12T00:44:24;15.55;;;12.43;;
51981;SDS011;37998;53.416;6.730;2023-08-12T00:46:52;18.55;;;12.00;;
51981;SDS011;37998;53.416;6.730;2023-08-12T00:49:20;20.25;;;12.05;;
51981;SDS011;37998;53.416;6.730;2023-08-12T00:51:48;20.25;;;13.40;;
51981;SDS011;37998;53.416;6.730;2023-08-12T00:54:16;18.27;;;11.52;;
51981;SDS011;37998;53.416;6.730;2023-08-12T00:56:44;18.92;;;10.88;;
51981;SDS011;37998;53.416;6.730;2023-08-12T00:59:10;18.35;;;11.38;;
51981;SDS011;37998;53.416;6.730;2023-08-12T01:01:39;17.30;;;11.15;;
51981;SDS011;37998;53.416;6.730;2023-08-12T01:04:08;17.05;;;10.05;;
51981;SDS011;37998;53.416;6.730;2023-08-12T01:06:35;14.57;;;10.57;;
51981;SDS011;37998;53.416;6.730;2023-08-12T01:09:02;17.30;;;11.05;;
51981;SDS011;37998;53.416;6.730;2023-08-12T01:17:27;17.52;;;9.90;;
51981;SDS011;37998;53.416;6.730;2023-08-12T01:19:55;12.43;;;9.75;;
51981;SDS011;37998;53.416;6.730;2023-08-12T01:22:22;11.30;;;9.57;;
51981;SDS011;37998;53.416;6.730;2023-08-12T01:24:51;14.25;;;9.63;;
51981;SDS011;37998;53.416;6.730;2023-08-12T01:27:17;15.05;;;9.48;;
51981;SDS011;37998;53.416;6.730;2023-08-12T01:29:47;15.13;;;9.52;;
51981;SDS011;37998;53.416;6.730;2023-08-12T01:35:10;11.32;;;8.63;;
51981;SDS011;37998;53.416;6.730;2023-08-12T01:37:43;16.23;;;8.93;;
51981;SDS011;37998;53.416;6.730;2023-08-12T01:40:10;12.48;;;8.95;;
51981;SDS011;37998;53.416;6.730;2023-08-12T01:42:38;13.68;;;9.15;;
51981;SDS011;37998;53.416;6.730;2023-08-12T01:45:06;13.40;;;9.07;;
51981;SDS011;37998;53.416;6.730;2023-08-12T01:47:32;10.57;;;8.95;;
51981;SDS011;37998;53.416;6.730;2023-08-12T01:49:58;10.63;;;7.53;;
51981;SDS011;37998;53.416;6.730;2023-08-12T01:52:24;11.25;;;8.30;;
51981;SDS011;37998;53.416;6.730;2023-08-12T01:54:50;14.60;;;8.88;;
51981;SDS011;37998;53.416;6.730;2023-08-12T01:57:17;11.30;;;7.80;;
51981;SDS011;37998;53.416;6.730;2023-08-12T01:59:43;12.75;;;8.55;;
51981;SDS011;37998;53.416;6.730;2023-08-12T02:02:10;12.82;;;7.70;;
51981;SDS011;37998;53.416;6.730;2023-08-12T02:04:36;12.85;;;7.70;;
51981;SDS011;37998;53.416;6.730;2023-08-12T02:07:03;9.88;;;6.85;;
51981;SDS011;37998;53.416;6.730;2023-08-12T02:09:29;8.88;;;7.70;;
51981;SDS011;37998;53.416;6.730;2023-08-12T02:11:56;10.77;;;7.15;;
51981;SDS011;37998;53.416;6.730;2023-08-12T02:14:22;12.00;;;6.90;;
51981;SDS011;37998;53.416;6.730;2023-08-12T02:16:48;8.77;;;6.90;;
51981;SDS011;37998;53.416;6.730;2023-08-12T02:19:14;8.88;;;6.90;;
51981;SDS011;37998;53.416;6.730;2023-08-12T02:21:41;9.02;;;6.13;;
51981;SDS011;37998;53.416;6.730;2023-08-12T02:24:07;9.52;;;6.13;;
51981;SDS011;37998;53.416;6.730;2023-08-12T02:26:37;9.80;;;5.93;;
51981;SDS011;37998;53.416;6.730;2023-08-12T02:29:03;9.93;;;5.82;;
51981;SDS011;37998;53.416;6.730;2023-08-12T02:31:29;9.93;;;6.18;;
51981;SDS011;37998;53.416;6.730;2023-08-12T02:33:55;9.00;;;5.75;;
51981;SDS011;37998;53.416;6.730;2023-08-12T02:36:21;8.57;;;5.68;;
51981;SDS011;37998;53.416;6.730;2023-08-12T02:38:47;10.70;;;5.70;;
51981;SDS011;37998;53.416;6.730;2023-08-12T02:41:13;10.48;;;6.13;;
51981;SDS011;37998;53.416;6.730;2023-08-12T02:43:39;7.55;;;5.68;;
51981;SDS011;37998;53.416;6.730;2023-08-12T02:46:05;8.65;;;5.72;;
51981;SDS011;37998;53.416;6.730;2023-08-12T02:48:32;9.48;;;5.45;;
51981;SDS011;37998;53.416;6.730;2023-08-12T02:50:58;8.35;;;5.45;;
51981;SDS011;37998;53.416;6.730;2023-08-12T02:53:24;8.57;;;5.30;;
51981;SDS011;37998;53.416;6.730;2023-08-12T02:55:50;10.50;;;5.80;;
51981;SDS011;37998;53.416;6.730;2023-08-12T02:58:16;6.95;;;5.63;;
51981;SDS011;37998;53.416;6.730;2023-08-12T03:00:42;7.40;;;5.50;;
51981;SDS011;37998;53.416;6.730;2023-08-12T03:03:09;11.73;;;6.10;;
51981;SDS011;37998;53.416;6.730;2023-08-12T03:05:35;7.55;;;5.32;;
51981;SDS011;37998;53.416;6.730;2023-08-12T03:08:02;7.05;;;5.80;;
51981;SDS011;37998;53.416;6.730;2023-08-12T03:10:29;8.65;;;5.25;;
51981;SDS011;37998;53.416;6.730;2023-08-12T03:12:56;11.40;;;6.05;;
51981;SDS011;37998;53.416;6.730;2023-08-12T03:15:22;11.63;;;5.57;;
51981;SDS011;37998;53.416;6.730;2023-08-12T03:17:48;9.70;;;5.70;;
51981;SDS011;37998;53.416;6.730;2023-08-12T03:20:15;11.07;;;5.68;;
51981;SDS011;37998;53.416;6.730;2023-08-12T03:22:41;8.65;;;5.43;;
51981;SDS011;37998;53.416;6.730;2023-08-12T03:25:08;7.75;;;5.00;;
51981;SDS011;37998;53.416;6.730;2023-08-12T03:27:35;8.40;;;5.70;;
51981;SDS011;37998;53.416;6.730;2023-08-12T03:30:01;12.30;;;5.72;;
51981;SDS011;37998;53.416;6.730;2023-08-12T03:32:28;8.95;;;5.20;;
51981;SDS011;37998;53.416;6.730;2023-08-12T03:34:54;8.68;;;5.53;;
51981;SDS011;37998;53.416;6.730;2023-08-12T03:37:21;9.93;;;5.32;;
51981;SDS011;37998;53.416;6.730;2023-08-12T03:39:49;10.73;;;5.10;;
51981;SDS011;37998;53.416;6.730;2023-08-12T03:42:16;8.73;;;5.80;;
51981;SDS011;37998;53.416;6.730;2023-08-12T03:44:43;6.53;;;5.80;;
51981;SDS011;37998;53.416;6.730;2023-08-12T03:47:10;11.43;;;5.65;;
51981;SDS011;37998;53.416;6.730;2023-08-12T03:49:37;7.90;;;5.63;;
51981;SDS011;37998;53.416;6.730;2023-08-12T03:52:03;10.73;;;5.95;;
51981;SDS011;37998;53.416;6.730;2023-08-12T03:54:32;10.85;;;5.60;;
51981;SDS011;37998;53.416;6.730;2023-08-12T03:56:59;8.43;;;6.13;;
51981;SDS011;37998;53.416;6.730;2023-08-12T03:59:26;9.60;;;6.30;;
51981;SDS011;37998;53.416;6.730;2023-08-12T04:01:52;9.63;;;6.32;;
51981;SDS011;37998;53.416;6.730;2023-08-12T04:04:18;10.00;;;6.15;;
51981;SDS011;37998;53.416;6.730;2023-08-12T04:06:44;9.52;;;5.80;;
51981;SDS011;37998;53.416;6.730;2023-08-12T04:09:10;7.75;;;5.68;;
51981;SDS011;37998;53.416;6.730;2023-08-12T04:11:36;10.60;;;6.03;;
51981;SDS011;37998;53.416;6.730;2023-08-12T04:14:02;9.57;;;6.30;;
51981;SDS011;37998;53.416;6.730;2023-08-12T04:16:28;10.13;;;6.32;;
51981;SDS011;37998;53.416;6.730;2023-08-12T04:18:53;10.45;;;5.65;;
51981;SDS011;37998;53.416;6.730;2023-08-12T04:21:19;9.13;;;6.57;;
51981;SDS011;37998;53.416;6.730;2023-08-12T04:23:45;10.85;;;6.38;;
51981;SDS011;37998;53.416;6.730;2023-08-12T04:26:11;9.57;;;6.28;;
51981;SDS011;37998;53.416;6.730;2023-08-12T04:28:37;11.50;;;7.50;;
51981;SDS011;37998;53.416;6.730;2023-08-12T04:31:05;11.52;;;7.47;;
51981;SDS011;37998;53.416;6.730;2023-08-12T04:33:33;10.70;;;6.13;;
51981;SDS011;37998;53.416;6.730;2023-08-12T04:35:59;9.70;;;6.15;;
51981;SDS011;37998;53.416;6.730;2023-08-12T04:38:25;11.20;;;7.13;;
51981;SDS011;37998;53.416;6.730;2023-08-12T04:40:54;15.20;;;7.10;;
51981;SDS011;37998;53.416;6.730;2023-08-12T04:43:21;8.10;;;6.57;;
51981;SDS011;37998;53.416;6.730;2023-08-12T04:45:47;8.57;;;6.50;;
51981;SDS011;37998;53.416;6.730;2023-08-12T04:48:15;12.18;;;7.50;;
51981;SDS011;37998;53.416;6.730;2023-08-12T04:50:42;9.70;;;6.70;;
51981;SDS011;37998;53.416;6.730;2023-08-12T04:53:08;11.85;;;6.68;;
51981;SDS011;37998;53.416;6.730;2023-08-12T04:55:34;11.30;;;7.20;;
51981;SDS011;37998;53.416;6.730;2023-08-12T04:58:01;9.63;;;6.63;;
51981;SDS011;37998;53.416;6.730;2023-08-12T05:00:28;10.00;;;7.35;;
51981;SDS011;37998;53.416;6.730;2023-08-12T05:02:55;10.43;;;7.60;;
51981;SDS011;37998;53.416;6.730;2023-08-12T05:05:21;8.73;;;6.97;;
51981;SDS011;37998;53.416;6.730;2023-08-12T05:07:47;12.13;;;7.43;;
51981;SDS011;37998;53.416;6.730;2023-08-12T05:10:15;13.13;;;8.00;;
51981;SDS011;37998;53.416;6.730;2023-08-12T05:12:42;13.35;;;7.32;;
51981;SDS011;37998;53.416;6.730;2023-08-12T05:15:09;8.93;;;7.43;;
51981;SDS011;37998;53.416;6.730;2023-08-12T05:17:36;14.27;;;7.72;;
51981;SDS011;37998;53.416;6.730;2023-08-12T05:20:03;11.38;;;7.28;;
51981;SDS011;37998;53.416;6.730;2023-08-12T05:22:30;11.13;;;7.93;;
51981;SDS011;37998;53.416;6.730;2023-08-12T05:24:55;11.40;;;7.47;;
51981;SDS011;37998;53.416;6.730;2023-08-12T05:27:22;10.45;;;8.23;;
51981;SDS011;37998;53.416;6.730;2023-08-12T05:29:50;9.98;;;7.70;;
51981;SDS011;37998;53.416;6.730;2023-08-12T05:32:16;11.02;;;8.10;;
51981;SDS011;37998;53.416;6.730;2023-08-12T05:34:41;13.32;;;7.65;;
51981;SDS011;37998;53.416;6.730;2023-08-12T05:37:07;10.70;;;7.18;;
51981;SDS011;37998;53.416;6.730;2023-08-12T05:39:34;10.30;;;7.68;;
51981;SDS011;37998;53.416;6.730;2023-08-12T05:42:00;10.27;;;8.32;;
51981;SDS011;37998;53.416;6.730;2023-08-12T05:44:26;10.93;;;8.02;;
51981;SDS011;37998;53.416;6.730;2023-08-12T05:46:52;12.60;;;9.18;;
51981;SDS011;37998;53.416;6.730;2023-08-12T05:49:18;13.70;;;8.55;;
51981;SDS011;37998;53.416;6.730;2023-08-12T05:51:44;13.50;;;8.40;;
51981;SDS011;37998;53.416;6.730;2023-08-12T05:54:10;11.73;;;8.60;;
51981;SDS011;37998;53.416;6.730;2023-08-12T05:56:36;15.30;;;9.63;;
51981;SDS011;37998;53.416;6.730;2023-08-12T05:59:01;14.63;;;9.02;;
51981;SDS011;37998;53.416;6.730;2023-08-12T06:01:27;14.98;;;9.43;;
51981;SDS011;37998;53.416;6.730;2023-08-12T06:03:53;12.40;;;9.38;;
51981;SDS011;37998;53.416;6.730;2023-08-12T06:06:19;13.43;;;9.10;;
51981;SDS011;37998;53.416;6.730;2023-08-12T06:08:45;12.95;;;9.50;;
51981;SDS011;37998;53.416;6.730;2023-08-12T06:11:11;15.02;;;9.07;;
51981;SDS011;37998;53.416;6.730;2023-08-12T06:13:37;12.35;;;8.77;;
51981;SDS011;37998;53.416;6.730;2023-08-12T06:16:03;11.60;;;8.70;;
51981;SDS011;37998;53.416;6.730;2023-08-12T06:18:30;18.30;;;9.23;;
51981;SDS011;37998;53.416;6.730;2023-08-12T06:20:55;11.40;;;8.38;;
51981;SDS011;37998;53.416;6.730;2023-08-12T06:23:21;12.93;;;9.00;;
51981;SDS011;37998;53.416;6.730;2023-08-12T06:25:47;16.33;;;10.00;;
51981;SDS011;37998;53.416;6.730;2023-08-12T06:28:13;11.35;;;9.10;;
51981;SDS011;37998;53.416;6.730;2023-08-12T06:30:39;13.48;;;8.77;;
51981;SDS011;37998;53.416;6.730;2023-08-12T06:33:05;11.75;;;8.48;;
51981;SDS011;37998;53.416;6.730;2023-08-12T06:35:31;13.98;;;9.32;;
51981;SDS011;37998;53.416;6.730;2023-08-12T06:37:57;11.85;;;8.32;;
51981;SDS011;37998;53.416;6.730;2023-08-12T06:40:23;15.95;;;9.88;;
51981;SDS011;37998;53.416;6.730;2023-08-12T06:42:49;14.18;;;9.20;;
51981;SDS011;37998;53.416;6.730;2023-08-12T06:45:15;13.65;;;8.43;;
51981;SDS011;37998;53.416;6.730;2023-08-12T06:47:41;12.45;;;8.07;;
51981;SDS011;37998;53.416;6.730;2023-08-12T06:50:07;10.40;;;8.55;;
51981;SDS011;37998;53.416;6.730;2023-08-12T06:52:33;12.77;;;9.15;;
51981;SDS011;37998;53.416;6.730;2023-08-12T06:54:59;15.00;;;8.60;;
51981;SDS011;37998;53.416;6.730;2023-08-12T06:57:25;16.38;;;9.05;;
51981;SDS011;37998;53.416;6.730;2023-08-12T06:59:51;13.95;;;8.45;;
51981;SDS011;37998;53.416;6.730;2023-08-12T07:02:17;13.93;;;8.50;;
51981;SDS011;37998;53.416;6.730;2023-08-12T07:04:43;10.95;;;7.85;;
51981;SDS011;37998;53.416;6.730;2023-08-12T07:07:09;14.13;;;8.98;;
51981;SDS011;37998;53.416;6.730;2023-08-12T07:09:35;12.40;;;8.80;;
51981;SDS011;37998;53.416;6.730;2023-08-12T07:12:01;13.68;;;8.13;;
51981;SDS011;37998;53.416;6.730;2023-08-12T07:14:28;15.90;;;9.18;;
51981;SDS011;37998;53.416;6.730;2023-08-12T07:16:54;10.27;;;8.07;;
51981;SDS011;37998;53.416;6.730;2023-08-12T07:19:20;13.90;;;8.80;;
51981;SDS011;37998;53.416;6.730;2023-08-12T07:21:46;15.13;;;9.65;;
51981;SDS011;37998;53.416;6.730;2023-08-12T07:24:12;16.05;;;9.68;;
51981;SDS011;37998;53.416;6.730;2023-08-12T07:26:39;12.35;;;8.82;;
51981;SDS011;37998;53.416;6.730;2023-08-12T07:29:05;12.23;;;8.75;;
51981;SDS011;37998;53.416;6.730;2023-08-12T07:31:31;13.40;;;9.30;;
51981;SDS011;37998;53.416;6.730;2023-08-12T07:33:57;14.15;;;9.00;;
51981;SDS011;37998;53.416;6.730;2023-08-12T07:36:23;13.90;;;9.23;;
51981;SDS011;37998;53.416;6.730;2023-08-12T07:38:49;11.48;;;9.13;;
51981;SDS011;37998;53.416;6.730;2023-08-12T07:41:14;13.30;;;7.75;;
51981;SDS011;37998;53.416;6.730;2023-08-12T07:43:40;13.82;;;8.77;;
51981;SDS011;37998;53.416;6.730;2023-08-12T07:46:06;16.70;;;9.30;;
51981;SDS011;37998;53.416;6.730;2023-08-12T07:48:32;16.15;;;9.02;;
51981;SDS011;37998;53.416;6.730;2023-08-12T07:50:58;15.95;;;10.18;;
51981;SDS011;37998;53.416;6.730;2023-08-12T07:53:25;12.77;;;9.05;;
51981;SDS011;37998;53.416;6.730;2023-08-12T07:55:51;15.20;;;9.85;;
51981;SDS011;37998;53.416;6.730;2023-08-12T07:58:17;15.63;;;10.88;;
51981;SDS011;37998;53.416;6.730;2023-08-12T08:00:44;16.30;;;10.65;;
51981;SDS011;37998;53.416;6.730;2023-08-12T08:03:09;17.35;;;10.00;;
51981;SDS011;37998;53.416;6.730;2023-08-12T08:05:39;17.05;;;10.30;;
51981;SDS011;37998;53.416;6.730;2023-08-12T08:08:06;13.38;;;9.02;;
51981;SDS011;37998;53.416;6.730;2023-08-12T08:10:32;16.25;;;10.07;;
51981;SDS011;37998;53.416;6.730;2023-08-12T08:12:58;13.43;;;8.75;;
51981;SDS011;37998;53.416;6.730;2023-08-12T08:15:24;12.70;;;8.65;;
51981;SDS011;37998;53.416;6.730;2023-08-12T08:17:50;15.32;;;10.80;;
51981;SDS011;37998;53.416;6.730;2023-08-12T08:20:16;13.00;;;10.30;;
51981;SDS011;37998;53.416;6.730;2023-08-12T08:22:42;15.93;;;11.05;;
51981;SDS011;37998;53.416;6.730;2023-08-12T08:25:08;14.32;;;10.00;;
51981;SDS011;37998;53.416;6.730;2023-08-12T08:27:34;17.20;;;11.48;;
51981;SDS011;37998;53.416;6.730;2023-08-12T08:29:59;14.73;;;10.75;;
51981;SDS011;37998;53.416;6.730;2023-08-12T08:32:25;16.17;;;11.25;;
51981;SDS011;37998;53.416;6.730;2023-08-12T08:34:51;15.23;;;12.13;;
51981;SDS011;37998;53.416;6.730;2023-08-12T08:37:17;16.88;;;11.43;;
51981;SDS011;37998;53.416;6.730;2023-08-12T08:39:43;17.67;;;12.07;;
51981;SDS011;37998;53.416;6.730;2023-08-12T08:42:09;17.63;;;11.73;;
51981;SDS011;37998;53.416;6.730;2023-08-12T08:44:37;18.15;;;11.82;;
51981;SDS011;37998;53.416;6.730;2023-08-12T08:47:08;19.00;;;11.73;;
51981;SDS011;37998;53.416;6.730;2023-08-12T08:49:34;13.32;;;9.80;;
51981;SDS011;37998;53.416;6.730;2023-08-12T08:52:02;16.35;;;12.65;;
51981;SDS011;37998;53.416;6.730;2023-08-12T08:54:28;15.90;;;12.10;;
51981;SDS011;37998;53.416;6.730;2023-08-12T08:56:54;19.38;;;12.90;;
51981;SDS011;37998;53.416;6.730;2023-08-12T08:59:20;16.05;;;11.63;;
51981;SDS011;37998;53.416;6.730;2023-08-12T09:01:47;17.60;;;12.20;;
51981;SDS011;37998;53.416;6.730;2023-08-12T09:04:16;17.08;;;12.40;;
51981;SDS011;37998;53.416;6.730;2023-08-12T09:06:44;18.45;;;12.82;;
51981;SDS011;37998;53.416;6.730;2023-08-12T09:09:12;17.60;;;13.02;;
51981;SDS011;37998;53.416;6.730;2023-08-12T09:11:41;15.65;;;11.80;;
51981;SDS011;37998;53.416;6.730;2023-08-12T09:14:09;15.55;;;12.43;;
51981;SDS011;37998;53.416;6.730;2023-08-12T09:16:35;20.23;;;14.32;;
51981;SDS011;37998;53.416;6.730;2023-08-12T09:19:01;20.52;;;14.27;;
51981;SDS011;37998;53.416;6.730;2023-08-12T09:21:27;21.55;;;13.40;;
51981;SDS011;37998;53.416;6.730;2023-08-12T09:23:53;22.65;;;15.15;;
51981;SDS011;37998;53.416;6.730;2023-08-12T09:26:20;19.23;;;14.10;;
51981;SDS011;37998;53.416;6.730;2023-08-12T09:28:47;22.05;;;14.40;;
51981;SDS011;37998;53.416;6.730;2023-08-12T09:31:23;16.95;;;14.30;;
51981;SDS011;37998;53.416;6.730;2023-08-12T09:33:51;20.60;;;14.90;;
51981;SDS011;37998;53.416;6.730;2023-08-12T09:36:17;22.13;;;16.20;;
51981;SDS011;37998;53.416;6.730;2023-08-12T09:38:44;21.95;;;15.35;;
51981;SDS011;37998;53.416;6.730;2023-08-12T09:41:10;19.15;;;15.13;;
51981;SDS011;37998;53.416;6.730;2023-08-12T09:43:40;26.80;;;16.33;;
51981;SDS011;37998;53.416;6.730;2023-08-12T09:46:11;19.88;;;15.60;;
51981;SDS011;37998;53.416;6.730;2023-08-12T09:48:40;21.05;;;17.50;;
51981;SDS011;37998;53.416;6.730;2023-08-12T09:51:06;25.55;;;17.55;;
51981;SDS011;37998;53.416;6.730;2023-08-12T09:53:33;24.38;;;17.70;;
51981;SDS011;37998;53.416;6.730;2023-08-12T09:56:18;23.95;;;17.67;;
51981;SDS011;37998;53.416;6.730;2023-08-12T09:58:50;32.20;;;19.15;;
51981;SDS011;37998;53.416;6.730;2023-08-12T10:01:20;21.90;;;17.20;;
51981;SDS011;37998;53.416;6.730;2023-08-12T10:03:50;22.92;;;17.33;;
51981;SDS011;37998;53.416;6.730;2023-08-12T10:06:17;20.85;;;16.35;;
51981;SDS011;37998;53.416;6.730;2023-08-12T10:08:45;25.20;;;17.52;;
51981;SDS011;37998;53.416;6.730;2023-08-12T10:11:12;24.60;;;17.25;;
51981;SDS011;37998;53.416;6.730;2023-08-12T10:13:40;25.83;;;18.77;;
51981;SDS011;37998;53.416;6.730;2023-08-12T10:16:06;26.30;;;18.58;;
51981;SDS011;37998;53.416;6.730;2023-08-12T10:18:34;25.63;;;19.23;;
51981;SDS011;37998;53.416;6.730;2023-08-12T10:21:04;27.35;;;20.05;;
51981;SDS011;37998;53.416;6.730;2023-08-12T10:23:34;25.40;;;18.30;;
51981;SDS011;37998;53.416;6.730;2023-08-12T10:26:01;31.08;;;20.30;;
51981;SDS011;37998;53.416;6.730;2023-08-12T10:28:30;24.77;;;18.23;;
51981;SDS011;37998;53.416;6.730;2023-08-12T10:31:02;27.75;;;19.10;;
51981;SDS011;37998;53.416;6.730;2023-08-12T10:33:36;24.65;;;19.75;;
51981;SDS011;37998;53.416;6.730;2023-08-12T10:36:02;29.40;;;20.10;;
51981;SDS011;37998;53.416;6.730;2023-08-12T10:38:29;25.98;;;19.25;;
51981;SDS011;37998;53.416;6.730;2023-08-12T10:41:14;25.70;;;18.23;;
51981;SDS011;37998;53.416;6.730;2023-08-12T10:46:22;29.45;;;20.75;;
51981;SDS011;37998;53.416;6.730;2023-08-12T10:48:55;25.23;;;19.33;;
51981;SDS011;37998;53.416;6.730;2023-08-12T10:54:22;24.08;;;19.60;;
51981;SDS011;37998;53.416;6.730;2023-08-12T10:59:48;23.35;;;19.10;;
51981;SDS011;37998;53.416;6.730;2023-08-12T11:10:17;22.83;;;19.15;;
51981;SDS011;37998;53.416;6.730;2023-08-12T11:15:16;22.55;;;17.00;;
51981;SDS011;37998;53.416;6.730;2023-08-12T11:17:43;19.27;;;14.50;;
51981;SDS011;37998;53.416;6.730;2023-08-12T11:20:12;18.52;;;14.77;;
51981;SDS011;37998;53.416;6.730;2023-08-12T11:22:39;17.90;;;13.38;;
51981;SDS011;37998;53.416;6.730;2023-08-12T11:25:10;16.75;;;11.57;;
51981;SDS011;37998;53.416;6.730;2023-08-12T11:27:38;12.98;;;9.98;;
51981;SDS011;37998;53.416;6.730;2023-08-12T11:30:10;17.13;;;10.40;;
51981;SDS011;37998;53.416;6.730;2023-08-12T11:32:37;10.90;;;8.70;;
51981;SDS011;37998;53.416;6.730;2023-08-12T11:35:05;11.18;;;9.43;;
51981;SDS011;37998;53.416;6.730;2023-08-12T11:37:39;12.18;;;9.23;;
51981;SDS011;37998;53.416;6.730;2023-08-12T11:40:07;8.85;;;5.57;;
51981;SDS011;37998;53.416;6.730;2023-08-12T11:42:35;6.25;;;4.50;;
51981;SDS011;37998;53.416;6.730;2023-08-12T11:45:03;5.82;;;4.22;;
51981;SDS011;37998;53.416;6.730;2023-08-12T11:47:30;5.63;;;4.10;;
51981;SDS011;37998;53.416;6.730;2023-08-12T11:49:56;5.50;;;4.00;;
51981;SDS011;37998;53.416;6.730;2023-08-12T11:52:22;6.32;;;3.97;;
51981;SDS011;37998;53.416;6.730;2023-08-12T11:54:49;3.67;;;3.03;;
51981;SDS011;37998;53.416;6.730;2023-08-12T11:57:16;2.85;;;2.13;;
51981;SDS011;37998;53.416;6.730;2023-08-12T11:59:42;1.90;;;1.80;;
51981;SDS011;37998;53.416;6.730;2023-08-12T12:02:10;2.28;;;1.70;;
51981;SDS011;37998;53.416;6.730;2023-08-12T12:04:37;3.33;;;2.10;;
51981;SDS011;37998;53.416;6.730;2023-08-12T12:07:16;3.00;;;2.17;;
51981;SDS011;37998;53.416;6.730;2023-08-12T12:09:46;2.30;;;2.10;;
51981;SDS011;37998;53.416;6.730;2023-08-12T12:12:15;3.97;;;2.42;;
51981;SDS011;37998;53.416;6.730;2023-08-12T12:14:42;2.83;;;2.40;;
51981;SDS011;37998;53.416;6.730;2023-08-12T12:17:08;5.40;;;3.00;;
51981;SDS011;37998;53.416;6.730;2023-08-12T12:19:39;5.18;;;2.88;;
51981;SDS011;37998;53.416;6.730;2023-08-12T12:22:06;5.88;;;2.40;;
51981;SDS011;37998;53.416;6.730;2023-08-12T12:24:32;8.15;;;2.72;;
51981;SDS011;37998;53.416;6.730;2023-08-12T12:27:13;7.03;;;3.00;;
51981;SDS011;37998;53.416;6.730;2023-08-12T12:29:39;5.75;;;2.60;;
51981;SDS011;37998;53.416;6.730;2023-08-12T12:32:05;7.10;;;3.10;;
51981;SDS011;37998;53.416;6.730;2023-08-12T12:34:31;9.15;;;3.63;;
51981;SDS011;37998;53.416;6.730;2023-08-12T12:36:57;6.88;;;2.95;;
51981;SDS011;37998;53.416;6.730;2023-08-12T12:39:23;7.55;;;2.92;;
51981;SDS011;37998;53.416;6.730;2023-08-12T12:41:49;10.02;;;3.50;;
51981;SDS011;37998;53.416;6.730;2023-08-12T12:44:15;7.55;;;3.30;;
51981;SDS011;37998;53.416;6.730;2023-08-12T12:46:41;6.32;;;3.08;;
51981;SDS011;37998;53.416;6.730;2023-08-12T12:49:07;5.57;;;3.45;;
51981;SDS011;37998;53.416;6.730;2023-08-12T12:51:33;8.13;;;3.03;;
51981;SDS011;37998;53.416;6.730;2023-08-12T12:53:59;10.07;;;3.42;;
51981;SDS011;37998;53.416;6.730;2023-08-12T12:56:25;4.45;;;2.65;;
51981;SDS011;37998;53.416;6.730;2023-08-12T12:58:51;5.93;;;3.17;;
51981;SDS011;37998;53.416;6.730;2023-08-12T13:01:17;6.97;;;3.30;;
51981;SDS011;37998;53.416;6.730;2023-08-12T13:03:43;7.90;;;3.17;;
51981;SDS011;37998;53.416;6.730;2023-08-12T13:06:09;8.32;;;3.20;;
51981;SDS011;37998;53.416;6.730;2023-08-12T13:08:34;8.85;;;3.00;;
51981;SDS011;37998;53.416;6.730;2023-08-12T13:11:00;7.93;;;2.95;;
51981;SDS011;37998;53.416;6.730;2023-08-12T13:13:26;7.40;;;3.08;;
51981;SDS011;37998;53.416;6.730;2023-08-12T13:15:52;8.65;;;3.33;;
51981;SDS011;37998;53.416;6.730;2023-08-12T13:18:18;8.10;;;3.22;;
51981;SDS011;37998;53.416;6.730;2023-08-12T13:20:44;7.68;;;3.20;;
51981;SDS011;37998;53.416;6.730;2023-08-12T13:23:10;7.40;;;3.35;;
51981;SDS011;37998;53.416;6.730;2023-08-12T13:25:38;7.88;;;2.90;;
51981;SDS011;37998;53.416;6.730;2023-08-12T13:28:04;5.28;;;2.38;;
51981;SDS011;37998;53.416;6.730;2023-08-12T13:30:30;7.32;;;3.35;;
51981;SDS011;37998;53.416;6.730;2023-08-12T13:32:56;6.28;;;3.10;;
51981;SDS011;37998;53.416;6.730;2023-08-12T13:35:22;8.32;;;3.25;;
51981;SDS011;37998;53.416;6.730;2023-08-12T13:37:49;5.78;;;2.92;;
51981;SDS011;37998;53.416;6.730;2023-08-12T13:40:15;8.45;;;2.78;;
51981;SDS011;37998;53.416;6.730;2023-08-12T13:42:41;7.10;;;2.90;;
51981;SDS011;37998;53.416;6.730;2023-08-12T13:45:07;7.22;;;2.83;;
51981;SDS011;37998;53.416;6.730;2023-08-12T13:47:35;6.05;;;2.53;;
51981;SDS011;37998;53.416;6.730;2023-08-12T13:50:01;12.70;;;3.03;;
51981;SDS011;37998;53.416;6.730;2023-08-12T13:52:27;9.40;;;3.42;;
51981;SDS011;37998;53.416;6.730;2023-08-12T13:54:53;8.02;;;3.58;;
51981;SDS011;37998;53.416;6.730;2023-08-12T13:57:19;8.02;;;3.55;;
51981;SDS011;37998;53.416;6.730;2023-08-12T13:59:45;7.32;;;3.40;;
51981;SDS011;37998;53.416;6.730;2023-08-12T14:02:13;8.88;;;3.33;;
51981;SDS011;37998;53.416;6.730;2023-08-12T14:04:40;8.63;;;3.45;;
51981;SDS011;37998;53.416;6.730;2023-08-12T14:07:05;10.65;;;4.07;;
51981;SDS011;37998;53.416;6.730;2023-08-12T14:09:32;11.23;;;3.72;;
51981;SDS011;37998;53.416;6.730;2023-08-12T14:11:59;10.60;;;4.53;;
51981;SDS011;37998;53.416;6.730;2023-08-12T14:14:25;6.88;;;3.88;;
51981;SDS011;37998;53.416;6.730;2023-08-12T14:16:54;10.88;;;4.50;;
51981;SDS011;37998;53.416;6.730;2023-08-12T14:19:21;8.98;;;4.07;;
51981;SDS011;37998;53.416;6.730;2023-08-12T14:21:47;13.15;;;5.30;;
51981;SDS011;37998;53.416;6.730;2023-08-12T14:24:13;9.15;;;5.30;;
51981;SDS011;37998;53.416;6.730;2023-08-12T14:26:39;10.25;;;4.82;;
51981;SDS011;37998;53.416;6.730;2023-08-12T14:29:05;13.90;;;5.07;;
51981;SDS011;37998;53.416;6.730;2023-08-12T14:31:32;14.90;;;5.10;;
51981;SDS011;37998;53.416;6.730;2023-08-12T14:33:58;8.60;;;3.80;;
51981;SDS011;37998;53.416;6.730;2023-08-12T14:36:24;10.07;;;3.20;;
51981;SDS011;37998;53.416;6.730;2023-08-12T14:38:50;13.68;;;4.18;;
51981;SDS011;37998;53.416;6.730;2023-08-12T14:41:16;10.88;;;3.35;;
51981;SDS011;37998;53.416;6.730;2023-08-12T14:43:42;11.25;;;3.75;;
51981;SDS011;37998;53.416;6.730;2023-08-12T14:46:08;11.63;;;3.85;;
51981;SDS011;37998;53.416;6.730;2023-08-12T14:48:35;11.88;;;4.05;;
51981;SDS011;37998;53.416;6.730;2023-08-12T14:51:01;7.18;;;2.40;;
51981;SDS011;37998;53.416;6.730;2023-08-12T14:53:27;7.32;;;2.30;;
51981;SDS011;37998;53.416;6.730;2023-08-12T14:55:53;12.05;;;3.13;;
51981;SDS011;37998;53.416;6.730;2023-08-12T14:58:20;9.48;;;3.17;;
51981;SDS011;37998;53.416;6.730;2023-08-12T15:00:49;9.20;;;2.92;;